createdAt,value
2023-05-04T00:02:25.910Z,7.03
2023-05-04T00:04:53.548Z,6.05
2023-05-04T00:07:21.079Z,6.70
2023-05-04T00:09:50.287Z,6.80
2023-05-04T00:12:17.878Z,6.43
2023-05-04T00:14:44.949Z,6.78
2023-05-04T00:17:12.865Z,7.55
2023-05-04T00:19:42.382Z,7.03
2023-05-04T00:22:09.667Z,7.33
2023-05-04T00:24:36.843Z,6.25
2023-05-04T00:27:04.083Z,6.75
2023-05-04T00:29:31.404Z,7.03
2023-05-04T00:31:58.491Z,7.20
2023-05-04T00:34:25.651Z,6.75
2023-05-04T00:36:52.880Z,8.00
2023-05-04T00:39:19.966Z,7.00
2023-05-04T00:41:47.124Z,7.10
2023-05-04T00:44:14.411Z,6.90
2023-05-04T00:46:41.731Z,7.15
2023-05-04T00:49:09.218Z,7.10
2023-05-04T00:51:37.096Z,6.78
2023-05-04T00:54:05.497Z,7.22
2023-05-04T00:56:34.132Z,7.60
2023-05-04T00:59:01.132Z,7.57
2023-05-04T01:01:28.414Z,7.50
2023-05-04T01:03:56.657Z,7.18
2023-05-04T01:06:42.127Z,8.45
2023-05-04T01:09:21.857Z,7.40
2023-05-04T01:12:15.730Z,7.47
2023-05-04T01:14:44.063Z,8.55
2023-05-04T01:17:12.290Z,7.60
2023-05-04T01:19:39.437Z,7.70
2023-05-04T01:22:06.651Z,7.80
2023-05-04T01:24:34.137Z,8.38
2023-05-04T01:27:19.318Z,7.63
2023-05-04T01:29:49.528Z,8.52
2023-05-04T01:32:19.745Z,8.13
2023-05-04T01:34:46.925Z,9.70
2023-05-04T01:37:14.034Z,9.02
2023-05-04T01:39:41.295Z,8.65
2023-05-04T01:42:08.390Z,12.60
2023-05-04T01:44:35.708Z,10.80
2023-05-04T01:47:02.962Z,10.35
2023-05-04T01:49:30.026Z,10.32
2023-05-04T01:51:57.076Z,7.63
2023-05-04T01:54:25.277Z,9.10
2023-05-04T01:56:52.350Z,8.20
2023-05-04T01:59:19.671Z,8.13
2023-05-04T02:01:46.850Z,8.57
2023-05-04T02:04:14.058Z,8.23
2023-05-04T02:06:41.468Z,8.50
2023-05-04T02:09:08.669Z,8.68
2023-05-04T02:11:35.756Z,11.23
2023-05-04T02:14:02.986Z,8.43
2023-05-04T02:16:30.105Z,8.57
2023-05-04T02:18:57.386Z,8.10
2023-05-04T02:21:24.478Z,8.35
2023-05-04T02:23:51.997Z,8.43
2023-05-04T02:26:18.966Z,8.05
2023-05-04T02:28:46.086Z,8.65
2023-05-04T02:31:13.155Z,7.97
2023-05-04T02:33:40.194Z,8.80
2023-05-04T02:36:08.999Z,7.38
2023-05-04T02:38:36.193Z,8.07
2023-05-04T02:41:04.022Z,8.05
2023-05-04T02:43:31.047Z,7.70
2023-05-04T02:46:00.010Z,7.97
2023-05-04T02:48:27.133Z,7.95
2023-05-04T02:50:54.203Z,7.40
2023-05-04T02:53:21.198Z,7.68
2023-05-04T02:55:48.576Z,8.75
2023-05-04T02:58:15.609Z,7.97
2023-05-04T03:00:42.704Z,8.20
2023-05-04T03:03:09.779Z,8.10
2023-05-04T03:05:36.961Z,8.75
2023-05-04T03:08:04.126Z,7.72
2023-05-04T03:10:31.300Z,8.07
2023-05-04T03:12:58.370Z,6.68
2023-05-04T03:15:25.449Z,7.20
2023-05-04T03:17:52.851Z,7.20
2023-05-04T03:20:19.984Z,7.53
2023-05-04T03:22:46.969Z,7.50
2023-05-04T03:25:13.992Z,7.40
2023-05-04T03:27:41.204Z,7.43
2023-05-04T03:30:08.849Z,7.05
2023-05-04T03:32:37.109Z,7.10
2023-05-04T03:35:24.585Z,6.65
2023-05-04T03:37:54.250Z,7.05
2023-05-04T03:40:23.260Z,7.05
2023-05-04T03:42:52.896Z,6.80
2023-05-04T03:45:22.263Z,6.60
2023-05-04T03:47:49.353Z,7.47
2023-05-04T03:50:16.431Z,6.85
2023-05-04T03:52:43.447Z,7.18
2023-05-04T03:55:11.700Z,7.55
2023-05-04T03:57:39.010Z,7.20
2023-05-04T04:00:06.928Z,7.13
2023-05-04T04:02:42.130Z,7.43
2023-05-04T04:05:16.018Z,7.03
2023-05-04T04:07:43.411Z,6.43
2023-05-04T04:10:10.891Z,7.38
2023-05-04T04:12:38.032Z,7.40
2023-05-04T04:15:05.404Z,8.13
2023-05-04T04:17:32.529Z,8.90
2023-05-04T04:19:59.648Z,8.05
2023-05-04T04:22:27.415Z,7.07
2023-05-04T04:24:54.438Z,7.45
2023-05-04T04:27:21.510Z,7.80
2023-05-04T04:29:48.728Z,7.43
2023-05-04T04:32:15.834Z,7.85
2023-05-04T04:34:42.869Z,7.50
2023-05-04T04:37:09.885Z,7.78
2023-05-04T04:39:36.848Z,8.88
2023-05-04T04:42:04.052Z,7.70
2023-05-04T04:44:31.083Z,8.20
2023-05-04T04:46:58.311Z,7.80
2023-05-04T04:49:26.215Z,7.72
2023-05-04T04:51:53.326Z,8.93
2023-05-04T04:54:20.870Z,8.90
2023-05-04T04:56:48.192Z,8.55
2023-05-04T04:59:15.304Z,9.70
2023-05-04T05:01:42.576Z,8.70
2023-05-04T05:04:09.792Z,8.75
2023-05-04T05:06:37.012Z,9.00
2023-05-04T05:09:04.418Z,8.85
2023-05-04T05:11:32.837Z,10.23
2023-05-04T05:14:00.115Z,9.35
2023-05-04T05:16:27.614Z,9.07
2023-05-04T05:18:54.695Z,8.38
2023-05-04T05:21:21.966Z,8.40
2023-05-04T05:23:49.098Z,8.45
2023-05-04T05:26:16.326Z,9.93
2023-05-04T05:28:43.401Z,9.68
2023-05-04T05:31:10.665Z,9.82
2023-05-04T05:33:37.894Z,8.93
2023-05-04T05:36:06.252Z,8.93
2023-05-04T05:38:33.426Z,8.85
2023-05-04T05:41:00.538Z,9.18
2023-05-04T05:43:27.781Z,9.55
2023-05-04T05:45:55.003Z,8.05
2023-05-04T05:48:22.055Z,8.40
2023-05-04T05:50:49.119Z,8.10
2023-05-04T05:53:16.246Z,8.90
2023-05-04T05:55:43.277Z,8.48
2023-05-04T05:58:10.492Z,8.05
2023-05-04T06:00:37.624Z,8.32
2023-05-04T06:03:04.738Z,8.15
2023-05-04T06:05:34.410Z,7.78
2023-05-04T06:08:01.808Z,9.35
2023-05-04T06:10:28.915Z,8.88
2023-05-04T06:12:56.058Z,8.45
2023-05-04T06:15:23.179Z,8.35
2023-05-04T06:17:50.304Z,7.95
2023-05-04T06:20:17.422Z,7.72
2023-05-04T06:22:44.867Z,7.70
2023-05-04T06:25:12.140Z,8.07
2023-05-04T06:27:39.510Z,7.18
2023-05-04T06:30:08.272Z,7.78
2023-05-04T06:32:35.686Z,7.93
2023-05-04T06:35:02.946Z,7.60
2023-05-04T06:37:30.156Z,7.88
2023-05-04T06:39:57.318Z,7.47
2023-05-04T06:42:24.420Z,8.23
2023-05-04T06:44:53.660Z,7.78
2023-05-04T06:47:20.987Z,7.90
2023-05-04T06:49:48.131Z,6.90
2023-05-04T06:52:15.240Z,7.43
2023-05-04T06:54:42.407Z,5.97
2023-05-04T06:57:09.566Z,5.90
2023-05-04T06:59:36.743Z,5.18
2023-05-04T07:02:03.879Z,4.43
2023-05-04T07:04:32.118Z,3.55
2023-05-04T07:06:59.237Z,4.05
2023-05-04T07:09:26.378Z,4.78
2023-05-04T07:11:53.501Z,3.50
2023-05-04T07:14:21.971Z,3.40
2023-05-04T07:16:49.225Z,2.90
2023-05-04T07:19:16.427Z,3.17
2023-05-04T07:21:43.520Z,3.30
2023-05-04T07:24:10.656Z,2.78
2023-05-04T07:26:37.759Z,3.03
2023-05-04T07:29:04.888Z,3.28
2023-05-04T07:31:32.083Z,3.47
2023-05-04T07:33:59.500Z,3.40
2023-05-04T07:36:27.980Z,4.07
2023-05-04T07:38:55.039Z,3.42
2023-05-04T07:41:22.247Z,3.95
2023-05-04T07:43:49.270Z,4.13
2023-05-04T07:46:16.752Z,3.88
2023-05-04T07:48:43.950Z,4.13
2023-05-04T07:51:14.972Z,4.15
2023-05-04T07:53:43.329Z,4.65
2023-05-04T07:56:11.808Z,4.30
2023-05-04T07:58:39.485Z,4.28
2023-05-04T08:01:06.698Z,4.47
2023-05-04T08:03:34.142Z,4.55
2023-05-04T08:06:01.336Z,4.55
2023-05-04T08:08:28.834Z,4.70
2023-05-04T08:11:02.015Z,5.07
2023-05-04T08:13:35.521Z,5.75
2023-05-04T08:16:03.015Z,4.80
2023-05-04T08:18:30.437Z,4.43
2023-05-04T08:20:58.534Z,3.90
2023-05-04T08:23:26.038Z,3.30
2023-05-04T08:25:53.259Z,3.45
2023-05-04T08:28:20.374Z,2.38
2023-05-04T08:30:47.530Z,1.88
2023-05-04T08:33:14.711Z,3.00
2023-05-04T08:35:41.816Z,2.45
2023-05-04T08:38:08.943Z,2.17
2023-05-04T08:40:36.037Z,1.58
2023-05-04T08:43:03.963Z,2.22
2023-05-04T08:45:31.670Z,2.03
2023-05-04T08:47:58.987Z,1.65
2023-05-04T08:50:26.381Z,2.80
2023-05-04T08:52:53.725Z,2.60
2023-05-04T08:55:21.350Z,2.60
2023-05-04T08:57:50.087Z,2.50
2023-05-04T09:00:19.124Z,1.87
2023-05-04T09:02:47.283Z,2.25
2023-05-04T09:05:15.053Z,2.05
2023-05-04T09:07:42.160Z,1.98
2023-05-04T09:10:09.971Z,2.22
2023-05-04T09:12:38.176Z,2.38
2023-05-04T09:15:19.098Z,2.10
2023-05-04T09:18:18.633Z,1.88
2023-05-04T09:20:47.503Z,2.13
2023-05-04T09:23:15.924Z,2.45
2023-05-04T09:25:53.882Z,2.38
2023-05-04T09:28:33.583Z,2.55
2023-05-04T09:31:01.596Z,2.60
2023-05-04T09:33:29.744Z,1.90
2023-05-04T09:35:58.460Z,1.60
2023-05-04T09:38:26.891Z,1.77
2023-05-04T09:40:54.162Z,2.00
2023-05-04T09:43:21.324Z,1.83
2023-05-04T09:45:48.907Z,2.00
2023-05-04T09:48:27.229Z,2.15
2023-05-04T09:50:56.308Z,2.40
2023-05-04T09:53:28.623Z,2.38
2023-05-04T09:56:20.479Z,2.80
2023-05-04T09:58:49.425Z,3.03
2023-05-04T10:01:17.452Z,2.50
2023-05-04T10:03:44.772Z,2.55
2023-05-04T10:06:12.602Z,2.85
2023-05-04T10:08:41.476Z,2.47
2023-05-04T10:11:08.779Z,2.38
2023-05-04T10:13:35.922Z,2.63
2023-05-04T10:16:30.300Z,2.58
2023-05-04T10:19:41.378Z,2.40
2023-05-04T10:22:20.457Z,2.50
2023-05-04T10:25:19.400Z,2.30
2023-05-04T10:28:16.859Z,2.28
2023-05-04T10:30:44.124Z,2.13
2023-05-04T10:33:12.456Z,2.33
2023-05-04T10:35:52.269Z,2.20
2023-05-04T10:38:20.136Z,2.22
2023-05-04T10:40:49.846Z,2.75
2023-05-04T10:43:26.442Z,2.60
2023-05-04T10:45:53.573Z,2.10
2023-05-04T10:48:20.699Z,2.42
2023-05-04T10:50:51.075Z,2.10
2023-05-04T10:55:48.079Z,2.20
2023-05-04T10:58:20.373Z,2.40
2023-05-04T11:00:51.867Z,2.13
2023-05-04T11:03:22.432Z,2.30
2023-05-04T11:05:52.480Z,2.13
2023-05-04T11:08:24.515Z,2.20
2023-05-04T11:11:07.936Z,2.03
2023-05-04T11:13:36.489Z,2.13
2023-05-04T11:16:03.686Z,1.80
2023-05-04T11:18:34.474Z,2.00
2023-05-04T11:21:02.705Z,2.40
2023-05-04T11:23:30.594Z,2.65
2023-05-04T11:25:57.870Z,2.45
2023-05-04T11:28:38.038Z,2.33
2023-05-04T11:31:19.191Z,2.45
2023-05-04T11:33:48.453Z,2.55
2023-05-04T11:36:15.973Z,2.17
2023-05-04T11:38:44.027Z,2.65
2023-05-04T11:41:12.756Z,2.00
2023-05-04T11:43:42.582Z,2.67
2023-05-04T11:46:10.821Z,2.63
2023-05-04T11:48:38.717Z,2.25
2023-05-04T11:51:06.808Z,2.47
2023-05-04T11:53:38.773Z,2.17
2023-05-04T11:56:08.457Z,2.20
2023-05-04T11:58:35.736Z,2.30
2023-05-04T12:01:04.251Z,2.40
2023-05-04T12:03:50.858Z,2.30
2023-05-04T12:06:30.821Z,2.35
2023-05-04T12:09:03.019Z,2.50
2023-05-04T12:11:30.244Z,2.55
2023-05-04T12:14:06.295Z,1.92
2023-05-04T12:16:34.500Z,1.95
2023-05-04T12:19:06.959Z,2.47
2023-05-04T12:21:35.403Z,2.28
2023-05-04T12:24:03.910Z,2.60
2023-05-04T12:26:31.441Z,2.42
2023-05-04T12:28:58.733Z,2.45
2023-05-04T12:31:26.078Z,2.17
2023-05-04T12:33:53.232Z,2.80
2023-05-04T12:36:20.465Z,2.22
2023-05-04T12:38:47.809Z,2.60
2023-05-04T12:41:15.134Z,2.42
2023-05-04T12:43:43.256Z,2.60
2023-05-04T12:46:10.646Z,2.10
2023-05-04T12:48:38.133Z,2.22
2023-05-04T12:51:05.365Z,2.25
2023-05-04T12:53:32.598Z,2.35
2023-05-04T12:56:00.918Z,2.50
2023-05-04T12:58:28.624Z,2.53
2023-05-04T13:00:58.048Z,2.17
2023-05-04T13:03:25.407Z,2.70
2023-05-04T13:05:53.008Z,2.30
2023-05-04T13:08:20.207Z,2.45
2023-05-04T13:10:48.149Z,2.78
2023-05-04T13:13:17.810Z,2.70
2023-05-04T13:15:45.421Z,2.08
2023-05-04T13:18:13.251Z,2.67
2023-05-04T13:20:41.043Z,2.40
2023-05-04T13:23:08.312Z,2.28
2023-05-04T13:25:35.367Z,2.42
2023-05-04T13:28:02.627Z,2.35
2023-05-04T13:30:30.291Z,2.30
2023-05-04T13:32:57.497Z,2.42
2023-05-04T13:35:24.766Z,2.40
2023-05-04T13:37:52.174Z,2.30
2023-05-04T13:40:19.219Z,2.40
2023-05-04T13:42:46.749Z,2.30
2023-05-04T13:45:14.224Z,2.42
2023-05-04T13:47:41.573Z,2.50
2023-05-04T13:50:08.978Z,2.50
2023-05-04T13:52:37.098Z,2.40
2023-05-04T13:55:05.021Z,2.40
2023-05-04T13:57:32.522Z,2.13
2023-05-04T14:00:06.301Z,2.50
2023-05-04T14:02:41.412Z,2.75
2023-05-04T14:05:09.183Z,2.15
2023-05-04T14:07:36.568Z,2.10
2023-05-04T14:10:04.283Z,1.92
2023-05-04T14:12:31.582Z,1.88
2023-05-04T14:14:59.200Z,2.60
2023-05-04T14:17:26.316Z,2.38
2023-05-04T14:19:53.497Z,2.38
2023-05-04T14:22:20.652Z,2.10
2023-05-04T14:24:49.050Z,2.55
2023-05-04T14:27:16.126Z,2.40
2023-05-04T14:29:43.769Z,2.75
2023-05-04T14:32:11.616Z,2.70
2023-05-04T14:34:38.802Z,2.58
2023-05-04T14:37:06.127Z,2.47
2023-05-04T14:39:33.297Z,2.65
2023-05-04T14:42:00.545Z,2.30
2023-05-04T14:44:28.829Z,2.80
2023-05-04T14:46:56.559Z,2.95
2023-05-04T14:49:35.762Z,2.70
2023-05-04T14:54:31.192Z,2.85
2023-05-04T14:57:00.054Z,2.72
2023-05-04T14:59:27.296Z,2.90
2023-05-04T15:01:55.578Z,2.40
2023-05-04T15:04:23.058Z,2.40
2023-05-04T15:06:50.533Z,2.33
2023-05-04T15:09:17.681Z,2.70
2023-05-04T15:11:44.784Z,2.75
2023-05-04T15:14:12.035Z,2.65
2023-05-04T15:16:39.297Z,2.50
2023-05-04T15:19:07.198Z,2.35
2023-05-04T15:21:34.701Z,2.78
2023-05-04T15:24:02.155Z,2.65
2023-05-04T15:26:31.200Z,2.42
2023-05-04T15:28:58.364Z,2.30
2023-05-04T15:31:25.794Z,2.50
2023-05-04T15:33:53.844Z,2.13
2023-05-04T15:36:21.006Z,2.38
2023-05-04T15:38:48.094Z,2.03
2023-05-04T15:41:15.165Z,2.67
2023-05-04T15:43:42.204Z,2.30
2023-05-04T15:46:09.329Z,2.58
2023-05-04T15:48:36.499Z,2.28
2023-05-04T15:51:03.620Z,2.65
2023-05-04T15:53:30.994Z,2.47
2023-05-04T15:55:58.090Z,2.30
2023-05-04T15:58:25.145Z,2.45
2023-05-04T16:00:52.462Z,2.20
2023-05-04T16:03:19.807Z,2.38
2023-05-04T16:05:47.121Z,2.05
2023-05-04T16:08:14.288Z,2.63
2023-05-04T16:10:41.403Z,2.53
2023-05-04T16:13:11.306Z,2.58
2023-05-04T16:15:39.196Z,2.40
2023-05-04T16:18:06.434Z,2.53
2023-05-04T16:20:33.473Z,2.63
2023-05-04T16:23:00.499Z,2.60
2023-05-04T16:25:27.607Z,2.17
2023-05-04T16:27:54.816Z,2.55
2023-05-04T16:30:21.997Z,2.45
2023-05-04T16:32:49.075Z,2.13
2023-05-04T16:35:16.301Z,2.25
2023-05-04T16:37:43.475Z,2.58
2023-05-04T16:40:14.497Z,2.13
2023-05-04T16:42:42.893Z,2.42
2023-05-04T16:45:14.036Z,2.80
2023-05-04T16:47:42.912Z,2.42
2023-05-04T16:50:11.650Z,2.10
2023-05-04T16:52:40.108Z,2.05
2023-05-04T16:55:11.326Z,2.30
2023-05-04T16:57:39.506Z,2.38
2023-05-04T17:00:07.848Z,2.00
2023-05-04T17:02:35.709Z,2.50
2023-05-04T17:05:06.766Z,2.58
2023-05-04T17:07:34.322Z,2.10
2023-05-04T17:10:01.632Z,2.33
2023-05-04T17:12:29.163Z,2.22
2023-05-04T17:14:56.369Z,2.25
2023-05-04T17:17:23.624Z,2.85
2023-05-04T17:19:50.809Z,4.97
2023-05-04T17:22:17.865Z,3.28
2023-05-04T17:24:45.647Z,2.92
2023-05-04T17:27:13.666Z,2.95
2023-05-04T17:29:41.334Z,2.53
2023-05-04T17:32:08.803Z,3.33
2023-05-04T17:34:36.800Z,2.80
2023-05-04T17:37:03.934Z,2.60
2023-05-04T17:39:31.873Z,2.75
2023-05-04T17:42:00.146Z,2.60
2023-05-04T17:44:28.984Z,2.63
2023-05-04T17:46:56.346Z,2.15
2023-05-04T17:49:23.467Z,2.90
2023-05-04T17:51:50.601Z,2.95
2023-05-04T17:54:17.699Z,2.90
2023-05-04T17:56:44.800Z,3.58
2023-05-04T17:59:11.931Z,3.60
2023-05-04T18:01:39.202Z,27.85
2023-05-04T18:04:06.341Z,20.50
2023-05-04T18:06:33.532Z,6.30
2023-05-04T18:09:01.346Z,13.40
2023-05-04T18:11:28.659Z,21.08
2023-05-04T18:13:56.739Z,14.63
2023-05-04T18:16:24.846Z,12.60
2023-05-04T18:18:52.575Z,12.73
2023-05-04T18:21:19.709Z,6.93
2023-05-04T18:23:47.119Z,7.50
2023-05-04T18:26:22.770Z,5.00
2023-05-04T18:28:50.148Z,3.72
2023-05-04T18:31:17.769Z,6.30
2023-05-04T18:33:45.253Z,5.15
2023-05-04T18:36:12.444Z,4.32
2023-05-04T18:38:40.057Z,3.17
2023-05-04T18:41:07.506Z,3.92
2023-05-04T18:43:34.849Z,4.47
2023-05-04T18:46:08.441Z,3.42
2023-05-04T18:48:35.652Z,3.58
2023-05-04T18:51:02.944Z,6.65
2023-05-04T18:53:30.293Z,5.10
2023-05-04T18:56:04.512Z,14.27
2023-05-04T18:58:32.067Z,16.13
2023-05-04T19:00:59.589Z,16.45
2023-05-04T19:03:26.897Z,12.70
2023-05-04T19:05:54.477Z,6.43
2023-05-04T19:08:21.896Z,9.43
2023-05-04T19:10:50.166Z,11.15
2023-05-04T19:13:17.824Z,8.50
2023-05-04T19:15:45.314Z,7.40
2023-05-04T19:18:12.662Z,5.35
2023-05-04T19:20:40.415Z,5.18
2023-05-04T19:23:07.629Z,4.30
2023-05-04T19:25:35.532Z,6.78
2023-05-04T19:28:09.304Z,8.02
2023-05-04T19:30:37.293Z,9.10
2023-05-04T19:33:05.440Z,7.93
2023-05-04T19:35:32.651Z,8.63
2023-05-04T19:38:01.787Z,7.03
2023-05-04T19:40:29.128Z,4.40
2023-05-04T19:42:56.580Z,3.85
2023-05-04T19:45:23.856Z,3.92
2023-05-04T19:47:52.550Z,4.57
2023-05-04T19:50:20.216Z,5.65
2023-05-04T19:52:47.333Z,7.10
2023-05-04T19:55:14.529Z,6.10
2023-05-04T19:57:41.659Z,4.80
2023-05-04T20:00:12.855Z,3.97
2023-05-04T20:02:40.167Z,3.80
2023-05-04T20:05:07.755Z,3.63
2023-05-04T20:07:35.162Z,3.95
2023-05-04T20:10:02.459Z,4.38
2023-05-04T20:12:29.701Z,10.05
2023-05-04T20:14:56.928Z,9.95
2023-05-04T20:17:24.093Z,8.05
2023-05-04T20:19:51.286Z,6.70
2023-05-04T20:22:18.557Z,5.63
2023-05-04T20:24:45.703Z,5.78
2023-05-04T20:27:13.250Z,5.47
2023-05-04T20:29:40.300Z,6.60
2023-05-04T20:32:09.041Z,5.13
2023-05-04T20:34:39.298Z,5.25
2023-05-04T20:37:06.551Z,5.97
2023-05-04T20:39:33.672Z,5.80
2023-05-04T20:42:00.967Z,6.50
2023-05-04T20:44:28.175Z,5.68
2023-05-04T20:46:55.266Z,5.68
2023-05-04T20:49:22.341Z,4.70
2023-05-04T20:51:49.417Z,4.32
2023-05-04T20:54:17.307Z,4.80
2023-05-04T20:56:44.577Z,6.50
2023-05-04T20:59:11.736Z,6.05
2023-05-04T21:01:38.864Z,5.40
2023-05-04T21:04:06.198Z,5.82
2023-05-04T21:06:58.196Z,5.22
2023-05-04T21:09:26.568Z,5.05
2023-05-04T21:11:53.751Z,5.05
2023-05-04T21:14:21.153Z,4.80
2023-05-04T21:16:48.249Z,4.88
2023-05-04T21:19:15.561Z,5.20
2023-05-04T21:21:42.888Z,4.57
2023-05-04T21:24:16.647Z,5.05
2023-05-04T21:26:45.143Z,5.07
2023-05-04T21:29:15.744Z,5.22
2023-05-04T21:31:43.010Z,5.30
2023-05-04T21:34:10.708Z,5.10
2023-05-04T21:36:39.155Z,5.90
2023-05-04T21:39:06.583Z,5.10
2023-05-04T21:41:33.758Z,5.20
2023-05-04T21:44:00.858Z,5.00
2023-05-04T21:46:28.146Z,4.90
2023-05-04T21:48:55.250Z,4.80
2023-05-04T21:51:22.383Z,4.70
2023-05-04T21:53:49.487Z,5.53
2023-05-04T21:56:16.737Z,4.97
2023-05-04T21:58:43.892Z,5.15
2023-05-04T22:01:17.038Z,5.30
2023-05-04T22:03:44.968Z,4.80
2023-05-04T22:06:12.207Z,4.85
2023-05-04T22:08:39.668Z,4.80
2023-05-04T22:11:06.805Z,4.43
2023-05-04T22:13:34.072Z,4.82
2023-05-04T22:16:01.300Z,4.53
2023-05-04T22:18:28.365Z,5.00
2023-05-04T22:20:55.423Z,4.65
2023-05-04T22:23:22.468Z,4.65
2023-05-04T22:25:49.563Z,4.50
2023-05-04T22:28:17.280Z,4.40
2023-05-04T22:30:44.357Z,4.90
2023-05-04T22:33:11.648Z,4.65
2023-05-04T22:35:38.736Z,4.60
2023-05-04T22:38:05.809Z,4.65
2023-05-04T22:40:32.918Z,4.18
2023-05-04T22:43:01.442Z,4.35
2023-05-04T22:45:28.520Z,4.75
2023-05-04T22:47:56.014Z,4.28
2023-05-04T22:50:23.223Z,4.43
2023-05-04T22:52:50.299Z,4.65
2023-05-04T22:55:17.415Z,4.15
2023-05-04T22:57:44.507Z,4.07
2023-05-04T23:00:12.161Z,4.28
2023-05-04T23:02:39.797Z,3.83
2023-05-04T23:05:07.921Z,4.38
2023-05-04T23:07:35.581Z,3.90
2023-05-04T23:10:03.315Z,4.20
2023-05-04T23:12:30.444Z,3.90
2023-05-04T23:14:57.548Z,4.05
2023-05-04T23:17:24.731Z,4.30
2023-05-04T23:19:51.839Z,4.63
2023-05-04T23:22:18.875Z,4.10
2023-05-04T23:24:45.879Z,3.85
2023-05-04T23:27:13.006Z,4.53
2023-05-04T23:29:40.127Z,3.28
2023-05-04T23:32:07.364Z,3.28
2023-05-04T23:34:34.522Z,3.47
2023-05-04T23:37:01.766Z,3.38
2023-05-04T23:39:28.801Z,3.33
2023-05-04T23:41:55.949Z,3.70
2023-05-04T23:44:23.157Z,3.75
2023-05-04T23:46:50.238Z,3.55
2023-05-04T23:49:17.331Z,2.85
2023-05-04T23:51:44.405Z,3.65
2023-05-04T23:54:11.492Z,3.58
2023-05-04T23:56:38.675Z,3.58
2023-05-04T23:59:05.945Z,3.45
